createdAt,value
2018-09-14T00:00:21.555Z,49.90
2018-09-14T00:02:49.636Z,49.90
2018-09-14T00:05:17.710Z,49.80
2018-09-14T00:07:45.771Z,49.90
2018-09-14T00:10:13.907Z,49.90
2018-09-14T00:12:41.982Z,49.90
2018-09-14T00:15:10.042Z,49.70
2018-09-14T00:17:38.099Z,49.70
2018-09-14T00:20:06.163Z,49.60
2018-09-14T00:22:34.218Z,49.60
2018-09-14T00:25:02.279Z,49.70
2018-09-14T00:27:30.350Z,49.70
2018-09-14T00:29:58.419Z,49.90
2018-09-14T00:32:26.471Z,50.00
2018-09-14T00:34:54.535Z,50.00
2018-09-14T00:37:22.578Z,50.00
2018-09-14T00:39:50.663Z,49.90
2018-09-14T00:42:18.838Z,49.90
2018-09-14T00:44:46.882Z,49.90
2018-09-14T00:47:15.789Z,49.80
2018-09-14T00:49:44.178Z,49.80
2018-09-14T00:52:12.554Z,49.60
2018-09-14T00:54:40.911Z,49.60
2018-09-14T00:57:09.318Z,49.50
2018-09-14T00:59:37.367Z,49.60
2018-09-14T01:02:05.631Z,49.70
2018-09-14T01:04:33.930Z,49.90
2018-09-14T01:07:01.986Z,50.00
2018-09-14T01:09:30.056Z,50.00
2018-09-14T01:11:59.107Z,49.90
2018-09-14T01:14:28.298Z,50.00
2018-09-14T01:16:57.196Z,49.90
2018-09-14T01:19:26.121Z,50.50
2018-09-14T01:21:54.175Z,49.80
2018-09-14T01:24:22.246Z,49.80
2018-09-14T01:26:50.399Z,49.60
2018-09-14T01:29:18.767Z,49.60
2018-09-14T01:31:46.951Z,49.60
2018-09-14T01:34:15.110Z,49.60
2018-09-14T01:36:43.183Z,49.70
2018-09-14T01:39:12.583Z,49.80
2018-09-14T01:41:40.867Z,49.90
2018-09-14T01:44:09.547Z,49.90
2018-09-14T01:46:37.926Z,49.80
2018-09-14T01:49:06.438Z,49.90
2018-09-14T01:51:34.538Z,49.90
2018-09-14T01:54:02.614Z,49.80
2018-09-14T01:56:30.671Z,49.80
2018-09-14T01:58:58.754Z,49.80
2018-09-14T02:01:26.826Z,49.60
2018-09-14T02:03:55.191Z,49.50
2018-09-14T02:06:24.323Z,49.50
2018-09-14T02:08:52.386Z,49.70
2018-09-14T02:11:20.463Z,49.50
2018-09-14T02:13:48.686Z,49.60
2018-09-14T02:16:16.747Z,49.70
2018-09-14T02:18:44.810Z,49.80
2018-09-14T02:21:12.876Z,49.70
2018-09-14T02:23:40.935Z,49.80
2018-09-14T02:26:08.996Z,50.20
2018-09-14T02:28:37.066Z,49.80
2018-09-14T02:31:05.272Z,49.70
2018-09-14T02:33:33.337Z,49.70
2018-09-14T02:36:01.391Z,49.30
2018-09-14T02:38:29.455Z,49.40
2018-09-14T02:40:57.513Z,49.50
2018-09-14T02:43:25.577Z,49.50
2018-09-14T02:45:53.630Z,49.40
2018-09-14T02:48:21.698Z,49.50
2018-09-14T02:50:49.750Z,49.70
2018-09-14T02:53:17.811Z,49.80
2018-09-14T02:55:46.122Z,49.70
2018-09-14T02:58:14.182Z,49.70
2018-09-14T03:00:42.249Z,49.60
2018-09-14T03:03:10.307Z,49.50
2018-09-14T03:05:38.362Z,49.50
2018-09-14T03:08:06.571Z,49.50
2018-09-14T03:10:34.631Z,49.30
2018-09-14T03:13:02.695Z,49.30
2018-09-14T03:15:30.976Z,49.30
2018-09-14T03:17:59.038Z,49.30
2018-09-14T03:20:27.104Z,49.30
2018-09-14T03:22:55.159Z,49.30
2018-09-14T03:25:23.479Z,49.70
2018-09-14T03:27:51.571Z,49.60
2018-09-14T03:30:19.635Z,49.60
2018-09-14T03:32:47.697Z,49.50
2018-09-14T03:35:16.052Z,49.50
2018-09-14T03:37:44.111Z,49.40
2018-09-14T03:40:12.182Z,49.40
2018-09-14T03:42:40.255Z,49.40
2018-09-14T03:45:08.327Z,49.30
2018-09-14T03:47:36.394Z,49.10
2018-09-14T03:50:04.626Z,49.10
2018-09-14T03:52:32.711Z,49.20
2018-09-14T03:55:00.779Z,49.20
2018-09-14T03:57:28.856Z,49.30
2018-09-14T03:59:56.914Z,49.50
2018-09-14T04:02:24.983Z,50.10
2018-09-14T04:04:53.327Z,49.50
2018-09-14T04:07:21.388Z,49.30
2018-09-14T04:09:49.447Z,49.20
2018-09-14T04:12:17.848Z,49.30
2018-09-14T04:14:45.911Z,49.40
2018-09-14T04:17:13.966Z,49.40
2018-09-14T04:19:42.031Z,49.40
2018-09-14T04:22:10.423Z,49.00
2018-09-14T04:24:38.471Z,49.10
2018-09-14T04:27:06.531Z,49.20
2018-09-14T04:29:34.607Z,49.20
2018-09-14T04:32:02.664Z,49.10
2018-09-14T04:34:31.327Z,49.30
2018-09-14T04:36:59.386Z,49.30
2018-09-14T04:39:27.458Z,49.30
2018-09-14T04:41:55.778Z,49.30
2018-09-14T04:44:23.841Z,49.20
2018-09-14T04:46:51.906Z,49.10
2018-09-14T04:49:19.963Z,49.20
2018-09-14T04:51:48.031Z,49.20
2018-09-14T04:54:16.087Z,49.10
2018-09-14T04:56:44.152Z,49.00
2018-09-14T04:59:12.207Z,49.00
2018-09-14T05:01:40.271Z,49.00
2018-09-14T05:04:08.355Z,48.70
2018-09-14T05:06:36.422Z,48.50
2018-09-14T05:09:06.382Z,48.60
2018-09-14T05:11:34.479Z,49.20
2018-09-14T05:14:02.621Z,49.20
2018-09-14T05:16:30.615Z,48.80
2018-09-14T05:18:58.671Z,48.80
2018-09-14T05:21:26.734Z,48.80
2018-09-14T05:23:54.925Z,48.80
2018-09-14T05:26:22.847Z,48.60
2018-09-14T05:28:50.910Z,48.40
2018-09-14T05:31:18.975Z,49.10
2018-09-14T05:33:47.035Z,48.30
2018-09-14T05:36:15.108Z,47.90
2018-09-14T05:38:43.162Z,48.50
2018-09-14T05:41:11.229Z,48.10
2018-09-14T05:43:39.282Z,47.70
2018-09-14T05:46:07.346Z,47.70
2018-09-14T05:48:35.437Z,47.50
2018-09-14T05:51:03.490Z,47.60
2018-09-14T05:53:31.548Z,47.50
2018-09-14T05:55:59.609Z,47.70
2018-09-14T05:58:27.667Z,47.70
2018-09-14T06:00:55.756Z,47.90
2018-09-14T06:03:23.818Z,48.30
2018-09-14T06:05:51.887Z,48.10
2018-09-14T06:08:19.942Z,47.90
2018-09-14T06:10:48.227Z,48.20
2018-09-14T06:13:16.467Z,48.10
2018-09-14T06:15:44.546Z,48.40
2018-09-14T06:18:12.607Z,48.30
2018-09-14T06:20:40.699Z,48.60
2018-09-14T06:23:08.886Z,48.60
2018-09-14T06:25:36.867Z,48.60
2018-09-14T06:28:04.943Z,48.80
2018-09-14T06:30:33.019Z,48.90
2018-09-14T06:33:01.094Z,49.00
2018-09-14T06:35:29.165Z,48.90
2018-09-14T06:37:57.231Z,48.90
2018-09-14T06:40:25.294Z,49.00
2018-09-14T06:42:53.363Z,48.80
2018-09-14T06:45:21.444Z,48.90
2018-09-14T06:47:49.503Z,49.20
2018-09-14T06:50:17.582Z,49.10
2018-09-14T06:52:45.662Z,49.30
2018-09-14T06:55:13.730Z,49.40
2018-09-14T06:57:41.803Z,49.30
2018-09-14T07:00:10.102Z,49.10
2018-09-14T07:02:38.090Z,49.00
2018-09-14T07:05:06.403Z,49.20
2018-09-14T07:07:34.470Z,49.30
2018-09-14T07:10:02.534Z,49.50
2018-09-14T07:12:30.603Z,49.50
2018-09-14T07:14:58.670Z,49.50
2018-09-14T07:17:26.834Z,49.20
2018-09-14T07:19:54.903Z,49.60
2018-09-14T07:22:23.079Z,49.70
2018-09-14T07:24:51.223Z,49.80
2018-09-14T07:27:19.113Z,49.90
2018-09-14T07:29:47.199Z,50.00
2018-09-14T07:32:15.290Z,50.00
2018-09-14T07:34:43.346Z,50.10
2018-09-14T07:37:11.418Z,50.00
2018-09-14T07:39:39.483Z,50.00
2018-09-14T07:42:07.551Z,50.00
2018-09-14T07:44:35.615Z,50.00
2018-09-14T07:47:03.679Z,49.60
2018-09-14T07:49:31.743Z,50.00
2018-09-14T07:51:59.798Z,50.00
2018-09-14T07:54:27.966Z,50.00
2018-09-14T07:56:56.035Z,50.20
2018-09-14T07:59:24.099Z,50.20
2018-09-14T08:01:52.158Z,50.30
2018-09-14T08:04:20.229Z,50.40
2018-09-14T08:06:48.287Z,50.30
2018-09-14T08:09:16.671Z,50.40
2018-09-14T08:11:44.730Z,50.20
2018-09-14T08:14:13.127Z,50.20
2018-09-14T08:16:41.207Z,50.10
2018-09-14T08:19:09.278Z,50.00
2018-09-14T08:21:37.395Z,50.20
2018-09-14T08:24:05.406Z,50.10
2018-09-14T08:26:33.467Z,50.00
2018-09-14T08:29:01.547Z,50.30
2018-09-14T08:31:29.604Z,50.40
2018-09-14T08:33:57.995Z,50.60
2018-09-14T08:36:26.060Z,50.60
2018-09-14T08:38:54.126Z,50.60
2018-09-14T08:41:22.186Z,50.70
2018-09-14T08:43:50.254Z,50.50
2018-09-14T08:46:18.311Z,50.60
2018-09-14T08:48:46.378Z,50.40
2018-09-14T08:51:14.430Z,50.40
2018-09-14T08:53:42.576Z,50.40
2018-09-14T08:56:10.579Z,50.40
2018-09-14T08:58:38.651Z,50.30
2018-09-14T09:01:06.703Z,50.40
2018-09-14T09:03:34.774Z,50.40
2018-09-14T09:06:02.823Z,50.50
2018-09-14T09:08:30.887Z,50.70
2018-09-14T09:10:58.942Z,50.60
2018-09-14T09:13:27.005Z,50.70
2018-09-14T09:15:55.071Z,50.70
2018-09-14T09:18:23.139Z,50.70
2018-09-14T09:20:51.194Z,50.60
2018-09-14T09:23:20.173Z,50.60
2018-09-14T09:25:48.238Z,50.60
2018-09-14T09:28:16.301Z,50.60
2018-09-14T09:30:44.382Z,50.60
2018-09-14T09:33:13.454Z,50.60
2018-09-14T09:35:41.521Z,50.60
2018-09-14T09:38:09.579Z,50.60
2018-09-14T09:40:37.642Z,50.60
2018-09-14T09:43:05.737Z,50.70
2018-09-14T09:45:33.795Z,50.70
2018-09-14T09:48:01.855Z,50.70
2018-09-14T09:50:29.919Z,50.80
2018-09-14T09:52:57.982Z,50.70
2018-09-14T09:55:26.063Z,50.60
2018-09-14T09:57:54.110Z,50.40
2018-09-14T10:00:27.614Z,50.40
2018-09-14T10:03:01.222Z,50.30
2018-09-14T10:05:34.694Z,50.30
2018-09-14T10:08:02.749Z,50.20
2018-09-14T10:10:30.815Z,50.30
2018-09-14T10:12:58.868Z,50.60
2018-09-14T10:15:26.933Z,50.20
2018-09-14T10:17:54.987Z,50.30
2018-09-14T10:20:23.061Z,50.50
2018-09-14T10:22:51.312Z,51.10
2018-09-14T10:25:19.651Z,50.40
2018-09-14T10:27:47.709Z,50.40
2018-09-14T10:30:15.781Z,50.30
2018-09-14T10:32:43.844Z,50.30
2018-09-14T10:35:11.970Z,50.30
2018-09-14T10:37:39.970Z,50.20
2018-09-14T10:40:08.085Z,50.20
2018-09-14T10:42:36.119Z,50.30
2018-09-14T10:45:04.377Z,50.30
2018-09-14T10:47:32.422Z,50.30
2018-09-14T10:50:00.560Z,50.20
2018-09-14T10:52:28.566Z,50.30
2018-09-14T10:54:56.818Z,50.30
2018-09-14T10:57:24.842Z,50.40
2018-09-14T10:59:52.953Z,50.30
2018-09-14T11:02:21.022Z,50.30
2018-09-14T11:04:49.087Z,51.10
2018-09-14T11:07:17.202Z,50.40
2018-09-14T11:09:45.247Z,50.50
2018-09-14T11:12:13.330Z,50.40
2018-09-14T11:14:41.599Z,50.40
2018-09-14T11:17:09.669Z,50.40
2018-09-14T11:19:37.760Z,50.50
2018-09-14T11:22:06.059Z,50.50
2018-09-14T11:24:34.161Z,50.50
2018-09-14T11:27:02.201Z,50.40
2018-09-14T11:29:30.555Z,50.40
2018-09-14T11:31:58.625Z,50.30
2018-09-14T11:34:26.682Z,50.30
2018-09-14T11:36:54.746Z,50.40
2018-09-14T11:39:22.799Z,50.30
2018-09-14T11:41:50.879Z,50.40
2018-09-14T11:44:18.945Z,50.40
2018-09-14T11:46:47.007Z,50.40
2018-09-14T11:49:15.064Z,50.30
2018-09-14T11:51:43.130Z,50.70
2018-09-14T11:54:11.237Z,50.30
2018-09-14T11:56:39.253Z,50.30
2018-09-14T11:59:07.327Z,50.30
2018-09-14T12:01:35.376Z,50.40
2018-09-14T12:04:03.431Z,50.30
2018-09-14T12:06:31.755Z,50.30
2018-09-14T12:08:59.815Z,50.30
2018-09-14T12:11:27.875Z,50.40
2018-09-14T12:13:55.963Z,50.30
2018-09-14T12:16:23.995Z,50.30
2018-09-14T12:18:52.055Z,50.50
2018-09-14T12:21:20.134Z,50.50
2018-09-14T12:23:48.179Z,50.50
2018-09-14T12:26:16.243Z,50.50
2018-09-14T12:28:44.313Z,50.40
2018-09-14T12:31:12.938Z,50.40
2018-09-14T12:33:41.346Z,50.50
2018-09-14T12:36:09.450Z,50.50
2018-09-14T12:38:37.530Z,50.50
2018-09-14T12:41:05.639Z,50.50
2018-09-14T12:43:34.390Z,50.50
2018-09-14T12:46:02.466Z,50.50
2018-09-14T12:48:30.572Z,50.50
2018-09-14T12:50:58.587Z,50.50
2018-09-14T12:53:26.651Z,50.50
2018-09-14T12:55:54.702Z,50.50
2018-09-14T12:58:22.767Z,50.60
2018-09-14T13:00:50.823Z,50.60
2018-09-14T13:03:18.891Z,50.50
2018-09-14T13:05:46.946Z,50.50
2018-09-14T13:08:15.030Z,50.50
2018-09-14T13:10:43.109Z,51.20
2018-09-14T13:13:11.175Z,50.60
2018-09-14T13:15:39.243Z,50.60
2018-09-14T13:18:07.306Z,50.50
2018-09-14T13:20:35.383Z,50.50
2018-09-14T13:23:03.455Z,50.50
2018-09-14T13:25:31.834Z,50.50
2018-09-14T13:27:59.949Z,50.50
2018-09-14T13:30:27.991Z,50.50
2018-09-14T13:32:56.034Z,50.50
2018-09-14T13:35:24.746Z,50.60
2018-09-14T13:37:53.330Z,50.60
2018-09-14T13:40:21.806Z,50.60
2018-09-14T13:42:50.406Z,50.60
2018-09-14T13:45:18.565Z,50.70
2018-09-14T13:47:46.842Z,50.70
2018-09-14T13:50:14.904Z,50.70
2018-09-14T13:52:42.988Z,50.70
2018-09-14T13:55:11.022Z,50.70
2018-09-14T13:57:39.092Z,50.70
2018-09-14T14:00:07.162Z,50.70
2018-09-14T14:02:35.228Z,50.70
2018-09-14T14:05:03.318Z,50.70
2018-09-14T14:07:31.611Z,50.70
2018-09-14T14:09:59.670Z,50.70
2018-09-14T14:12:27.740Z,50.80
2018-09-14T14:14:55.919Z,50.70
2018-09-14T14:17:24.008Z,51.40
2018-09-14T14:19:52.035Z,50.80
2018-09-14T14:22:20.103Z,50.80
2018-09-14T14:24:48.273Z,51.10
2018-09-14T14:27:16.299Z,50.80
2018-09-14T14:29:44.367Z,50.80
2018-09-14T14:32:12.444Z,50.80
2018-09-14T14:34:40.566Z,50.80
2018-09-14T14:37:08.602Z,50.80
2018-09-14T14:39:36.659Z,50.90
2018-09-14T14:42:04.735Z,50.80
2018-09-14T14:44:32.791Z,50.80
2018-09-14T14:47:00.853Z,50.80
2018-09-14T14:49:29.227Z,50.90
2018-09-14T14:51:57.254Z,50.90
2018-09-14T14:54:25.319Z,50.90
2018-09-14T14:56:53.383Z,50.80
2018-09-14T14:59:21.442Z,50.80
2018-09-14T15:01:49.545Z,50.80
2018-09-14T15:04:17.842Z,50.80
2018-09-14T15:06:45.945Z,50.80
2018-09-14T15:09:14.006Z,50.80
2018-09-14T15:11:42.090Z,50.90
2018-09-14T15:14:10.182Z,50.90
2018-09-14T15:16:38.231Z,50.80
2018-09-14T15:19:06.427Z,50.70
2018-09-14T15:21:34.496Z,50.80
2018-09-14T15:24:02.584Z,50.80
2018-09-14T15:26:30.591Z,50.80
2018-09-14T15:28:58.658Z,50.80
2018-09-14T15:31:26.743Z,50.90
2018-09-14T15:33:54.810Z,51.50
2018-09-14T15:36:22.874Z,50.80
2018-09-14T15:38:50.934Z,50.80
2018-09-14T15:41:18.986Z,50.80
2018-09-14T15:43:47.594Z,50.80
2018-09-14T15:46:15.509Z,50.80
2018-09-14T15:48:43.565Z,50.80
2018-09-14T15:51:11.618Z,50.80
2018-09-14T15:53:39.686Z,50.80
2018-09-14T15:56:07.747Z,50.80
2018-09-14T15:58:35.807Z,50.80
2018-09-14T16:01:04.182Z,50.70
2018-09-14T16:03:32.247Z,50.70
2018-09-14T16:06:00.306Z,50.70
2018-09-14T16:08:28.373Z,50.70
2018-09-14T16:10:56.671Z,50.70
2018-09-14T16:13:24.754Z,50.70
2018-09-14T16:15:52.795Z,50.70
2018-09-14T16:18:20.850Z,50.70
2018-09-14T16:20:48.915Z,50.80
2018-09-14T16:25:51.375Z,50.80
2018-09-14T16:28:19.464Z,50.80
2018-09-14T16:30:47.526Z,50.80
2018-09-14T16:33:15.581Z,50.80
2018-09-14T16:35:43.647Z,50.80
2018-09-14T16:38:11.719Z,50.90
2018-09-14T16:40:39.782Z,50.90
2018-09-14T16:43:07.838Z,50.90
2018-09-14T16:45:35.903Z,50.80
2018-09-14T16:48:04.435Z,50.60
2018-09-14T16:50:32.584Z,50.90
2018-09-14T16:53:00.563Z,50.90
2018-09-14T16:55:28.622Z,50.80
2018-09-14T16:57:56.691Z,50.80
2018-09-14T17:00:24.995Z,50.80
2018-09-14T17:02:53.327Z,50.80
2018-09-14T17:05:21.394Z,50.90
2018-09-14T17:07:49.450Z,50.80
2018-09-14T17:10:17.526Z,50.50
2018-09-14T17:12:45.584Z,50.80
2018-09-14T17:15:13.651Z,50.90
2018-09-14T17:17:41.717Z,50.90
2018-09-14T17:20:09.771Z,50.80
2018-09-14T17:22:37.828Z,50.90
2018-09-14T17:25:05.890Z,50.80
2018-09-14T17:27:33.992Z,50.90
2018-09-14T17:30:02.308Z,50.90
2018-09-14T17:32:30.372Z,50.90
2018-09-14T17:34:58.431Z,50.90
2018-09-14T17:37:26.495Z,50.80
2018-09-14T17:39:54.562Z,50.90
2018-09-14T17:42:22.619Z,50.80
2018-09-14T17:44:50.679Z,50.80
2018-09-14T17:47:18.732Z,50.80
2018-09-14T17:49:46.811Z,50.80
2018-09-14T17:52:14.866Z,50.80
2018-09-14T17:54:42.927Z,50.80
2018-09-14T17:57:11.014Z,50.80
2018-09-14T17:59:39.083Z,50.80
2018-09-14T18:02:07.271Z,50.80
2018-09-14T18:04:35.375Z,50.80
2018-09-14T18:07:03.718Z,50.80
2018-09-14T18:09:31.817Z,50.90
2018-09-14T18:12:00.106Z,50.80
2018-09-14T18:14:28.436Z,50.80
2018-09-14T18:16:56.481Z,50.80
2018-09-14T18:19:24.546Z,50.80
2018-09-14T18:21:52.916Z,50.80
2018-09-14T18:24:21.779Z,50.80
2018-09-14T18:26:49.842Z,50.80
2018-09-14T18:29:17.915Z,50.80
2018-09-14T18:31:45.974Z,50.80
2018-09-14T18:34:14.330Z,50.80
2018-09-14T18:36:42.395Z,50.80
2018-09-14T18:39:12.147Z,50.80
2018-09-14T18:41:40.534Z,50.80
2018-09-14T18:44:08.595Z,50.80
2018-09-14T18:46:36.945Z,50.80
2018-09-14T18:49:05.318Z,50.80
2018-09-14T18:51:33.647Z,50.80
2018-09-14T18:54:01.716Z,50.80
2018-09-14T18:56:29.771Z,50.80
2018-09-14T18:58:57.826Z,50.70
2018-09-14T19:01:25.890Z,50.70
2018-09-14T19:03:53.950Z,50.70
2018-09-14T19:06:22.159Z,50.70
2018-09-14T19:08:50.231Z,50.70
2018-09-14T19:11:18.294Z,50.80
2018-09-14T19:13:46.361Z,50.70
2018-09-14T19:16:14.418Z,50.80
2018-09-14T19:18:42.477Z,50.80
2018-09-14T19:21:10.539Z,50.80
2018-09-14T19:23:38.594Z,50.80
2018-09-14T19:26:06.663Z,50.80
2018-09-14T19:28:34.727Z,50.80
2018-09-14T19:31:03.270Z,50.80
2018-09-14T19:33:31.327Z,50.80
2018-09-14T19:35:59.618Z,50.80
2018-09-14T19:38:27.813Z,50.80
2018-09-14T19:40:55.857Z,50.80
2018-09-14T19:43:23.943Z,50.90
2018-09-14T19:45:52.170Z,50.90
2018-09-14T19:48:20.231Z,50.80
2018-09-14T19:50:48.518Z,50.80
2018-09-14T19:53:16.819Z,51.50
2018-09-14T19:55:44.878Z,50.90
2018-09-14T19:58:13.166Z,50.90
2018-09-14T20:00:41.226Z,50.90
2018-09-14T20:03:09.296Z,50.80
2018-09-14T20:05:37.615Z,50.80
2018-09-14T20:08:05.756Z,50.80
2018-09-14T20:10:33.939Z,50.90
2018-09-14T20:13:02.022Z,50.80
2018-09-14T20:15:30.085Z,50.80
2018-09-14T20:17:58.332Z,50.90
2018-09-14T20:20:26.307Z,50.80
2018-09-14T20:22:54.811Z,50.80
2018-09-14T20:25:22.874Z,50.80
2018-09-14T20:27:50.935Z,51.50
2018-09-14T20:30:19.271Z,50.80
2018-09-14T20:32:47.335Z,50.80
2018-09-14T20:35:15.406Z,50.90
2018-09-14T20:37:43.485Z,50.80
2018-09-14T20:40:11.543Z,50.80
2018-09-14T20:42:39.610Z,50.90
2018-09-14T20:45:07.671Z,50.80
2018-09-14T20:47:35.751Z,50.80
2018-09-14T20:50:03.812Z,50.80
2018-09-14T20:52:31.904Z,50.80
2018-09-14T20:54:59.963Z,50.80
2018-09-14T20:57:28.035Z,50.80
2018-09-14T20:59:56.111Z,50.90
2018-09-14T21:02:24.182Z,50.90
2018-09-14T21:04:52.313Z,50.90
2018-09-14T21:07:20.367Z,51.00
2018-09-14T21:09:48.433Z,51.00
2018-09-14T21:12:16.499Z,51.00
2018-09-14T21:14:44.564Z,51.00
2018-09-14T21:17:12.703Z,50.90
2018-09-14T21:19:40.775Z,50.90
2018-09-14T21:22:08.842Z,50.90
2018-09-14T21:24:36.907Z,50.90
2018-09-14T21:27:04.986Z,50.90
2018-09-14T21:29:33.072Z,50.90
2018-09-14T21:32:01.124Z,50.90
2018-09-14T21:34:29.178Z,50.80
2018-09-14T21:36:57.251Z,50.90
2018-09-14T21:39:25.321Z,50.90
2018-09-14T21:41:53.383Z,50.90
2018-09-14T21:44:21.447Z,50.90
2018-09-14T21:46:49.534Z,50.90
2018-09-14T21:49:17.603Z,50.90
2018-09-14T21:51:45.666Z,50.90
2018-09-14T21:54:13.843Z,50.80
2018-09-14T21:56:41.799Z,50.90
2018-09-14T21:59:09.870Z,50.90
2018-09-14T22:01:37.931Z,50.90
2018-09-14T22:04:06.027Z,50.80
2018-09-14T22:06:34.082Z,51.10
2018-09-14T22:09:02.151Z,50.90
2018-09-14T22:11:30.516Z,50.90
2018-09-14T22:13:58.607Z,50.90
2018-09-14T22:16:26.666Z,50.90
2018-09-14T22:18:54.972Z,51.00
2018-09-14T22:21:23.027Z,51.70
2018-09-14T22:23:51.087Z,50.90
2018-09-14T22:26:19.142Z,50.90
2018-09-14T22:28:47.215Z,50.90
2018-09-14T22:31:15.270Z,50.80
2018-09-14T22:33:43.610Z,50.90
2018-09-14T22:36:11.666Z,50.90
2018-09-14T22:38:40.043Z,50.80
2018-09-14T22:41:08.338Z,50.80
2018-09-14T22:43:36.507Z,50.80
2018-09-14T22:46:04.559Z,50.80
2018-09-14T22:48:32.851Z,50.90
2018-09-14T22:51:00.914Z,51.50
2018-09-14T22:53:28.982Z,50.90
2018-09-14T22:55:57.042Z,50.90
2018-09-14T22:58:25.130Z,51.00
2018-09-14T23:00:58.738Z,50.90
2018-09-14T23:03:26.803Z,50.90
2018-09-14T23:05:54.858Z,50.80
2018-09-14T23:08:22.923Z,50.90
2018-09-14T23:10:50.978Z,50.80
2018-09-14T23:13:19.065Z,50.90
2018-09-14T23:15:52.683Z,50.90
2018-09-14T23:18:20.743Z,50.80
2018-09-14T23:20:48.798Z,50.80
2018-09-14T23:23:16.888Z,51.50
2018-09-14T23:25:44.910Z,50.90
2018-09-14T23:28:12.974Z,50.90
2018-09-14T23:30:41.045Z,51.60
2018-09-14T23:33:09.100Z,51.00
2018-09-14T23:35:38.162Z,51.00
2018-09-14T23:38:06.494Z,50.90
2018-09-14T23:40:34.559Z,50.90
2018-09-14T23:43:02.878Z,50.80
2018-09-14T23:45:30.948Z,50.80
2018-09-14T23:47:58.998Z,50.80
2018-09-14T23:50:27.074Z,50.80
2018-09-14T23:52:55.126Z,50.90
2018-09-14T23:55:23.186Z,50.90
2018-09-14T23:57:51.251Z,50.80
